Time;durP1;ratioP1;P1;durP2;ratioP2;P2;SDS_P1;SDS_P2;PMS_P1;PMS_P2;Temp;Humidity;BMP_temperature;BMP_pressure;BME280_temperature;BME280_humidity;BME280_pressure;Samples;Min_cycle;Max_cycle;Signal;HPM_P1;HPM_P2
2022/01/29 00:01:48;;;;;;;7.18;3.60;;;;;;;4.29;51.05;100220.03;5049587;28;20032;-50
2022/01/29 00:04:16;;;;;;;7.85;3.40;;;;;;;4.36;50.42;100214.97;5049500;28;20039;-47
2022/01/29 00:06:42;;;;;;;6.18;3.20;;;;;;;4.19;51.42;100217.47;5049404;28;20021;-50
2022/01/29 00:09:13;;;;;;;5.65;3.50;;;;;;;3.83;52.04;100211.34;5052345;28;20677;-48
2022/01/29 00:11:38;;;;;;;6.32;3.25;;;;;;;4.14;51.95;100211.81;5053140;28;20021;-47
2022/01/29 00:14:05;;;;;;;6.53;3.85;;;;;;;4.19;50.97;100212.22;5052910;28;20529;-48
2022/01/29 00:16:31;;;;;;;6.10;3.50;;;;;;;4.09;51.06;100212.28;5052722;28;20501;-49
2022/01/29 00:18:57;;;;;;;5.38;3.17;;;;;;;4.25;50.41;100206.34;5053006;28;20047;-50
2022/01/29 00:21:22;;;;;;;6.63;3.78;;;;;;;4.23;50.34;100204.84;5052874;28;20017;-48
2022/01/29 00:23:47;;;;;;;6.63;3.85;;;;;;;4.19;50.44;100203.47;5052285;28;20037;-49
2022/01/29 00:26:13;;;;;;;6.07;3.53;;;;;;;4.14;50.46;100211.81;5052374;28;20489;-51
2022/01/29 00:28:39;;;;;;;4.50;3.03;;;;;;;3.94;51.05;100203.25;5052460;28;20389;-51
2022/01/29 00:31:05;;;;;;;6.88;3.55;;;;;;;3.80;52.00;100206.38;5052699;28;20029;-48
2022/01/29 00:33:30;;;;;;;5.07;3.50;;;;;;;3.88;50.93;100202.03;5052572;28;20096;-49
2022/01/29 00:35:56;;;;;;;6.53;3.92;;;;;;;3.94;51.12;100212.94;5052400;28;20033;-51
2022/01/29 00:38:21;;;;;;;7.15;3.80;;;;;;;3.95;51.02;100219.88;5052403;28;20036;-51
2022/01/29 00:40:47;;;;;;;7.05;3.70;;;;;;;3.97;51.33;100217.91;5052653;28;20032;-50
2022/01/29 00:43:12;;;;;;;7.55;3.70;;;;;;;4.08;51.19;100220.34;5052699;28;20460;-51
2022/01/29 00:45:38;;;;;;;6.72;3.65;;;;;;;4.33;50.56;100217.94;5052460;28;20432;-48
2022/01/29 00:48:04;;;;;;;5.43;3.47;;;;;;;3.93;50.91;100222.66;5052369;28;20025;-48
2022/01/29 00:50:29;;;;;;;7.82;3.60;;;;;;;3.86;51.72;100224.22;5052350;28;20645;-50
2022/01/29 00:52:54;;;;;;;7.10;3.40;;;;;;;3.79;51.42;100220.50;5052360;28;20021;-49
2022/01/29 00:55:20;;;;;;;6.82;3.80;;;;;;;3.78;51.61;100222.31;5052603;28;20024;-51
2022/01/29 00:57:46;;;;;;;6.80;3.72;;;;;;;3.71;51.24;100224.72;5052728;28;20040;-51
2022/01/29 01:00:12;;;;;;;6.68;3.75;;;;;;;3.66;52.16;100223.50;5052402;28;20481;-50
2022/01/29 01:02:38;;;;;;;6.70;3.72;;;;;;;3.80;51.50;100220.34;5052708;28;20021;-50
2022/01/29 01:05:04;;;;;;;6.72;3.80;;;;;;;3.41;52.76;100214.47;5053247;28;20100;-50
2022/01/29 01:07:29;;;;;;;9.88;3.95;;;;;;;3.79;51.94;100223.97;5052961;28;20039;-51
2022/01/29 01:09:55;;;;;;;5.20;3.30;;;;;;;3.47;52.64;100216.53;5052872;28;20053;-52
2022/01/29 01:12:20;;;;;;;6.03;3.70;;;;;;;3.52;52.44;100216.91;5053185;28;20427;-52
2022/01/29 01:14:45;;;;;;;6.93;3.88;;;;;;;3.47;52.75;100206.84;5053036;28;20025;-52
2022/01/29 01:17:11;;;;;;;6.47;3.67;;;;;;;3.75;52.43;100201.56;5052904;28;20028;-51
2022/01/29 01:19:36;;;;;;;8.95;4.10;;;;;;;3.71;52.04;100193.13;5051947;28;20021;-49
2022/01/29 01:22:02;;;;;;;8.57;3.75;;;;;;;3.67;52.24;100183.84;5052326;28;20392;-52
2022/01/29 01:24:28;;;;;;;7.38;3.67;;;;;;;3.35;52.30;100184.34;5052821;28;20054;-50
2022/01/29 01:26:53;;;;;;;7.35;3.67;;;;;;;3.24;52.88;100177.44;5052636;28;20503;-51
2022/01/29 01:29:18;;;;;;;7.05;4.03;;;;;;;3.26;53.08;100180.75;5051836;28;20016;-52
2022/01/29 01:31:45;;;;;;;7.07;3.80;;;;;;;3.41;52.77;100182.88;5052629;28;20033;-51
2022/01/29 01:34:19;;;;;;;6.45;4.15;;;;;;;3.42;52.75;100190.66;5052342;28;20048;-52
2022/01/29 01:36:58;;;;;;;6.65;3.90;;;;;;;3.33;52.70;100184.47;5052143;28;20455;-50
2022/01/29 01:39:29;;;;;;;5.82;3.53;;;;;;;3.37;52.33;100181.53;5052195;28;20227;-52
2022/01/29 01:42:07;;;;;;;6.88;3.80;;;;;;;3.64;52.54;100191.25;5052162;28;20350;-52
2022/01/29 01:44:45;;;;;;;7.95;4.40;;;;;;;3.56;52.13;100185.88;5052332;28;20047;-49
2022/01/29 01:47:12;;;;;;;6.70;3.50;;;;;;;3.55;52.35;100184.22;5052095;28;20028;-50
2022/01/29 01:49:38;;;;;;;6.38;3.85;;;;;;;3.52;52.11;100188.81;5052120;28;20106;-52
2022/01/29 01:52:06;;;;;;;6.55;3.70;;;;;;;3.43;52.86;100191.50;5052057;28;20238;-51
2022/01/29 01:54:32;;;;;;;6.80;3.50;;;;;;;3.54;53.98;100183.38;5050836;28;20021;-49
2022/01/29 01:56:58;;;;;;;6.93;3.75;;;;;;;3.72;52.03;100186.06;5050606;28;20020;-48
2022/01/29 01:59:24;;;;;;;6.75;3.42;;;;;;;3.75;51.48;100187.56;5051972;28;20032;-50
2022/01/29 02:01:49;;;;;;;6.53;3.83;;;;;;;3.64;51.83;100188.59;5052000;28;20021;-51
2022/01/29 02:04:14;;;;;;;5.78;3.33;;;;;;;3.22;52.78;100183.81;5051525;28;20075;-49
2022/01/29 02:06:40;;;;;;;7.40;3.65;;;;;;;3.37;52.04;100184.16;5050555;28;20044;-48
2022/01/29 02:09:05;;;;;;;6.45;3.70;;;;;;;3.57;51.84;100175.19;5051571;28;20053;-51
2022/01/29 02:11:31;;;;;;;5.93;3.67;;;;;;;3.56;51.77;100180.59;5051685;28;20469;-51
2022/01/29 02:13:58;;;;;;;6.70;3.72;;;;;;;3.38;52.23;100181.38;5051813;28;20511;-49
2022/01/29 02:16:26;;;;;;;8.05;4.00;;;;;;;3.74;51.14;100178.84;5051363;28;20024;-50
2022/01/29 02:18:51;;;;;;;5.97;3.58;;;;;;;3.37;51.99;100184.16;5051673;28;20072;-50
2022/01/29 02:21:17;;;;;;;6.75;3.42;;;;;;;3.30;51.98;100190.00;5051532;28;20468;-51
2022/01/29 02:23:42;;;;;;;6.20;3.70;;;;;;;3.22;51.86;100183.81;5049366;28;20408;-49
2022/01/29 02:26:08;;;;;;;7.03;3.67;;;;;;;3.44;51.20;100174.72;5051208;28;20021;-50
2022/01/29 02:28:33;;;;;;;7.60;3.40;;;;;;;3.77;50.64;100183.81;5051367;28;20020;-50
2022/01/29 02:31:02;;;;;;;5.32;3.33;;;;;;;3.60;50.16;100176.69;5051090;28;20087;-48
2022/01/29 02:33:28;;;;;;;6.75;3.60;;;;;;;3.55;50.12;100176.31;5051012;28;20396;-48
2022/01/29 02:35:54;;;;;;;5.93;3.35;;;;;;;3.62;50.10;100178.22;5051464;28;20060;-48
2022/01/29 02:38:21;;;;;;;5.45;3.00;;;;;;;3.61;50.11;100181.00;5051420;28;20040;-49
2022/01/29 02:40:53;;;;;;;5.88;3.20;;;;;;;3.41;49.88;100175.84;5051400;28;20140;-49
2022/01/29 02:43:21;;;;;;;5.30;3.15;;;;;;;3.56;49.69;100181.44;5050937;28;20021;-49
2022/01/29 02:45:47;;;;;;;4.47;3.03;;;;;;;3.39;49.72;100182.22;5049850;28;20025;-50
2022/01/29 02:48:13;;;;;;;5.32;2.90;;;;;;;3.34;51.10;100185.28;5050826;28;20048;-48
2022/01/29 02:50:39;;;;;;;5.53;3.03;;;;;;;3.30;50.20;100183.94;5051149;28;20021;-48
2022/01/29 02:53:05;;;;;;;4.55;2.88;;;;;;;3.24;50.08;100190.59;5051170;28;20025;-48
2022/01/29 02:55:30;;;;;;;5.15;2.97;;;;;;;3.34;49.63;100187.91;5050815;28;20056;-48
2022/01/29 02:57:56;;;;;;;5.40;3.10;;;;;;;3.43;50.41;100194.94;5049769;28;20028;-50
2022/01/29 03:00:22;;;;;;;5.95;3.03;;;;;;;3.08;50.13;100185.94;5050707;28;20052;-52
2022/01/29 03:02:47;;;;;;;4.72;3.10;;;;;;;3.23;49.78;100183.66;5050216;28;20025;-49
2022/01/29 03:05:13;;;;;;;5.35;2.90;;;;;;;3.20;50.49;100177.88;5050353;28;20037;-48
2022/01/29 03:07:38;;;;;;;6.90;3.35;;;;;;;3.10;49.75;100173.50;5050868;28;20029;-48
2022/01/29 03:10:04;;;;;;;6.15;3.00;;;;;;;3.08;49.63;100170.16;5050864;28;20461;-49
2022/01/29 03:12:30;;;;;;;5.35;2.83;;;;;;;3.27;49.66;100179.75;5049364;28;20033;-50
2022/01/29 03:14:55;;;;;;;5.47;2.95;;;;;;;3.27;49.58;100171.06;5050680;28;20106;-49
2022/01/29 03:17:21;;;;;;;5.35;3.00;;;;;;;3.10;49.46;100175.28;5050793;28;20033;-49
2022/01/29 03:19:46;;;;;;;5.55;3.10;;;;;;;3.29;49.33;100179.63;5050980;28;20107;-50
2022/01/29 03:22:12;;;;;;;5.22;2.70;;;;;;;3.05;49.05;100175.72;5050941;28;20036;-50
2022/01/29 03:24:37;;;;;;;4.00;2.38;;;;;;;3.13;49.63;100183.72;5050387;28;20021;-51
2022/01/29 03:27:03;;;;;;;3.90;2.45;;;;;;;2.99;49.63;100180.72;5050301;28;20025;-49
2022/01/29 03:29:28;;;;;;;6.45;2.95;;;;;;;2.80;49.87;100148.28;5050993;28;20112;-49
2022/01/29 03:31:54;;;;;;;4.70;2.83;;;;;;;3.01;49.56;100189.28;5050480;28;20477;-49
2022/01/29 03:34:19;;;;;;;4.90;2.78;;;;;;;2.90;49.25;100185.88;5050521;28;20378;-51
2022/01/29 03:36:45;;;;;;;4.70;2.90;;;;;;;2.91;50.05;100190.16;5050682;28;20029;-51
2022/01/29 03:39:10;;;;;;;4.82;2.72;;;;;;;2.98;49.79;100185.16;5050708;28;20445;-49
2022/01/29 03:41:37;;;;;;;5.03;3.10;;;;;;;2.84;49.82;100186.44;5050464;28;20025;-50
2022/01/29 03:44:05;;;;;;;4.10;2.60;;;;;;;2.93;49.73;100193.47;5053713;28;20033;-50
2022/01/29 03:46:32;;;;;;;6.63;3.17;;;;;;;2.74;50.16;100207.50;5054402;28;20025;-50
2022/01/29 03:48:58;;;;;;;4.95;2.78;;;;;;;2.68;51.01;100202.78;5054382;28;20063;-51
2022/01/29 03:51:23;;;;;;;6.88;3.00;;;;;;;3.02;50.27;100201.47;5054631;28;20112;-50
2022/01/29 03:53:49;;;;;;;4.28;2.50;;;;;;;2.86;51.17;100213.41;5054201;28;20485;-49
2022/01/29 03:56:15;;;;;;;7.68;3.13;;;;;;;2.88;51.34;100216.72;5053725;28;20064;-51
2022/01/29 03:58:40;;;;;;;5.32;3.15;;;;;;;2.81;51.35;100209.56;5053577;28;20025;-53
2022/01/29 04:01:05;;;;;;;7.13;3.20;;;;;;;2.84;51.95;100209.28;5053366;28;20059;-51
2022/01/29 04:03:32;;;;;;;5.40;3.35;;;;;;;3.08;51.77;100201.72;5053922;28;20378;-52
2022/01/29 04:05:58;;;;;;;5.00;3.08;;;;;;;2.84;52.30;100209.28;5053754;28;20366;-52
2022/01/29 04:08:24;;;;;;;3.95;2.85;;;;;;;2.73;52.18;100213.72;5053661;28;20110;-53
2022/01/29 04:10:51;;;;;;;5.57;3.45;;;;;;;2.72;53.04;100212.06;5052998;28;20080;-51
2022/01/29 04:13:21;;;;;;;6.85;3.42;;;;;;;2.82;52.83;100208.56;5053592;28;20033;-49
2022/01/29 04:15:46;;;;;;;5.28;3.20;;;;;;;2.68;53.75;100208.03;5053548;28;20029;-50
2022/01/29 04:18:12;;;;;;;5.90;3.42;;;;;;;2.77;54.98;100210.81;5053628;28;20039;-52
2022/01/29 04:20:37;;;;;;;6.13;3.15;;;;;;;2.57;53.06;100208.22;5053330;28;20044;-48
2022/01/29 04:23:05;;;;;;;5.53;3.20;;;;;;;2.55;53.41;100210.13;5053643;28;20021;-51
2022/01/29 04:25:31;;;;;;;6.60;3.30;;;;;;;2.57;53.77;100212.63;5053663;28;20021;-51
2022/01/29 04:27:56;;;;;;;8.57;3.83;;;;;;;2.64;53.43;100211.09;5053470;28;20443;-50
2022/01/29 04:30:38;;;;;;;6.63;3.55;;;;;;;2.78;52.87;100215.09;5053528;28;20021;-50
2022/01/29 04:33:49;;;;;;;6.10;3.35;;;;;;;2.73;53.63;100223.41;5053563;28;20104;-52
2022/01/29 04:35:50;;;;;;;6.00;3.10;;;;;;;2.88;53.25;100229.88;5052927;28;20064;-49
2022/01/29 04:38:16;;;;;;;6.28;3.22;;;;;;;2.91;53.09;100231.38;5053363;28;20044;-49
2022/01/29 04:40:41;;;;;;;5.50;3.15;;;;;;;2.92;53.75;100233.06;5053627;28;20539;-50
2022/01/29 04:43:07;;;;;;;5.88;3.40;;;;;;;2.96;53.96;100236.22;5053315;28;20009;-51
2022/01/29 04:45:32;;;;;;;8.70;3.60;;;;;;;2.98;53.25;100237.75;5053150;28;20100;-50
2022/01/29 04:47:58;;;;;;;6.60;3.42;;;;;;;2.92;53.41;100239.13;5053262;28;20405;-48
2022/01/29 04:50:24;;;;;;;9.95;3.90;;;;;;;2.96;53.49;100234.44;5053063;28;20021;-49
2022/01/29 04:52:49;;;;;;;7.07;3.70;;;;;;;2.84;54.19;100243.47;5052754;28;20368;-49
2022/01/29 04:55:14;;;;;;;6.72;3.70;;;;;;;2.83;54.86;100249.66;5052750;28;20040;-50
2022/01/29 04:57:41;;;;;;;6.00;3.78;;;;;;;3.16;54.25;100248.38;5052643;28;20047;-50
2022/01/29 05:00:09;;;;;;;7.18;3.40;;;;;;;3.18;53.73;100232.41;5052867;28;20029;-51
2022/01/29 05:02:35;;;;;;;6.15;3.60;;;;;;;3.10;53.75;100249.75;5052702;28;20029;-50
2022/01/29 05:05:01;;;;;;;6.72;4.03;;;;;;;2.99;54.22;100243.81;5053447;28;20029;-48
2022/01/29 05:07:26;;;;;;;6.40;3.92;;;;;;;2.87;54.28;100245.78;5053220;28;20399;-48
2022/01/29 05:09:52;;;;;;;6.25;3.60;;;;;;;2.76;53.98;100244.16;5052454;28;20426;-48
2022/01/29 05:12:24;;;;;;;5.65;3.60;;;;;;;2.87;54.68;100237.91;5052916;28;20028;-48
2022/01/29 05:28:05;;;;;;;7.50;4.20;;;;;;;2.73;54.24;100245.25;5052328;28;20027;-48
2022/01/29 05:30:30;;;;;;;6.50;4.00;;;;;;;2.80;54.11;100239.44;5052232;28;20023;-49
2022/01/29 05:32:56;;;;;;;6.03;3.97;;;;;;;2.71;54.47;100244.56;5052167;28;20037;-49
2022/01/29 05:35:21;;;;;;;7.53;3.80;;;;;;;3.01;54.29;100245.34;5052489;28;20036;-48
2022/01/29 05:37:50;;;;;;;7.22;4.10;;;;;;;2.86;54.00;100257.28;5052382;28;20025;-48
2022/01/29 05:40:15;;;;;;;8.32;4.25;;;;;;;2.97;53.97;100256.28;5052391;28;20025;-48
2022/01/29 05:42:41;;;;;;;6.40;4.07;;;;;;;2.98;53.53;100269.28;5052266;28;20370;-48
2022/01/29 05:45:06;;;;;;;8.30;3.92;;;;;;;2.81;53.73;100268.22;5052155;28;20047;-48
2022/01/29 05:47:32;;;;;;;10.23;3.95;;;;;;;2.99;53.03;100281.47;5052062;28;20028;-48
2022/01/29 05:49:57;;;;;;;7.82;4.28;;;;;;;3.25;53.08;100283.50;5051855;28;20024;-49
2022/01/29 05:52:23;;;;;;;6.28;3.95;;;;;;;2.98;53.07;100274.56;5052063;28;20036;-47
2022/01/29 05:54:51;;;;;;;6.80;4.35;;;;;;;3.09;53.06;100278.84;5052195;28;20028;-49
2022/01/29 05:57:16;;;;;;;7.82;4.00;;;;;;;3.26;52.07;100274.63;5051990;28;20039;-50
2022/01/29 05:59:42;;;;;;;8.70;4.47;;;;;;;3.53;51.82;100277.28;5051751;28;20025;-49
2022/01/29 06:02:07;;;;;;;6.22;3.85;;;;;;;3.79;50.90;100274.00;5051915;28;20021;-51
2022/01/29 06:04:33;;;;;;;5.68;3.88;;;;;;;4.10;50.48;100287.69;5055898;28;20403;-51
2022/01/29 06:06:58;;;;;;;18.50;8.43;;;;;;;4.35;49.85;100287.13;5051406;28;20029;-50
2022/01/29 06:09:23;;;;;;;6.03;3.83;;;;;;;4.44;49.74;100284.41;5051399;28;20056;-52
2022/01/29 06:11:49;;;;;;;11.70;7.25;;;;;;;4.82;49.19;100300.06;5045132;28;20512;-52
2022/01/29 06:14:14;;;;;;;13.43;6.97;;;;;;;4.65;48.76;100297.28;5031524;28;20401;-51
2022/01/29 06:16:40;;;;;;;20.25;9.90;;;;;;;4.81;48.59;100296.59;5031879;28;20017;-48
2022/01/29 06:19:05;;;;;;;12.10;6.68;;;;;;;5.04;47.60;100291.63;5031749;28;20021;-50
2022/01/29 06:21:31;;;;;;;8.70;3.95;;;;;;;5.03;47.32;100287.38;5031761;28;20028;-49
2022/01/29 06:23:58;;;;;;;7.03;3.70;;;;;;;5.17;46.84;100299.16;5031579;28;20087;-50
2022/01/29 06:26:23;;;;;;;7.85;4.38;;;;;;;5.66;46.60;100296.81;5031915;28;20465;-37
2022/01/29 06:28:49;;;;;;;11.15;5.82;;;;;;;5.51;46.22;100298.38;5036661;28;20029;-37
2022/01/29 06:31:14;;;;;;;15.93;6.00;;;;;;;5.46;46.55;100308.56;5051083;28;20445;-37
2022/01/29 06:33:40;;;;;;;7.10;3.95;;;;;;;5.78;46.00;100310.56;5051285;28;20032;-37
2022/01/29 06:36:05;;;;;;;9.02;5.00;;;;;;;5.63;46.44;100299.75;5053328;28;20025;-50
2022/01/29 06:38:31;;;;;;;7.60;4.05;;;;;;;6.07;45.83;100314.66;5051253;28;20025;-46
2022/01/29 06:40:56;;;;;;;7.55;4.00;;;;;;;6.49;44.70;100316.41;5050400;28;20029;-49
2022/01/29 06:43:22;;;;;;;6.45;4.18;;;;;;;6.24;45.25;100319.03;5051254;28;20021;-50
2022/01/29 06:45:47;;;;;;;8.07;3.70;;;;;;;5.88;45.75;100321.84;5051105;28;20024;-50
2022/01/29 06:48:13;;;;;;;8.15;3.47;;;;;;;5.65;46.81;100321.56;5051262;28;20136;-50
2022/01/29 06:50:38;;;;;;;9.02;4.07;;;;;;;5.44;46.92;100329.03;5051196;28;20081;-49
2022/01/29 06:53:04;;;;;;;6.40;3.92;;;;;;;4.88;48.84;100329.28;5051172;28;20021;-52
2022/01/29 06:55:30;;;;;;;5.88;3.70;;;;;;;5.26;47.87;100323.81;5051245;28;20027;-52
2022/01/29 06:57:55;;;;;;;5.57;3.50;;;;;;;5.05;48.34;100332.88;5042677;28;20033;-51
2022/01/29 07:00:21;;;;;;;5.65;3.53;;;;;;;5.32;47.59;100336.38;5032769;28;20025;-51
2022/01/29 07:02:46;;;;;;;6.15;3.70;;;;;;;5.18;48.20;100336.91;5030991;28;20442;-50
2022/01/29 07:05:12;;;;;;;18.35;9.32;;;;;;;5.17;48.45;100337.91;5041123;28;20083;-48
2022/01/29 07:07:37;;;;;;;10.43;4.75;;;;;;;5.11;48.53;100336.72;5049775;28;20479;-51
2022/01/29 07:10:07;;;;;;;6.03;3.70;;;;;;;5.38;48.09;100333.09;5050014;28;20061;-51
2022/01/29 07:12:32;;;;;;;7.75;4.10;;;;;;;5.35;48.14;100336.06;5050911;28;20022;-53
2022/01/29 07:14:58;;;;;;;7.43;4.35;;;;;;;5.35;48.07;100333.44;5050121;28;20029;-51
2022/01/29 07:17:24;;;;;;;8.23;4.65;;;;;;;5.47;48.67;100339.28;5050797;28;20037;-52
2022/01/29 07:19:50;;;;;;;8.55;4.15;;;;;;;5.41;47.52;100330.16;5054660;28;20192;-49
2022/01/29 07:22:16;;;;;;;8.20;4.75;;;;;;;5.60;47.88;100329.13;5054812;28;20017;-49
2022/01/29 07:24:42;;;;;;;7.32;4.30;;;;;;;5.50;47.50;100323.09;5054436;28;20039;-50
2022/01/29 07:27:07;;;;;;;6.43;4.05;;;;;;;5.43;47.86;100333.47;5054634;28;20396;-47
2022/01/29 07:29:33;;;;;;;6.78;4.43;;;;;;;5.58;47.24;100330.25;5054280;28;20028;-48
2022/01/29 07:31:58;;;;;;;6.55;4.10;;;;;;;5.52;48.04;100342.28;5054117;28;20500;-50
2022/01/29 07:34:24;;;;;;;6.70;4.28;;;;;;;5.98;46.72;100340.22;5054411;28;20021;-51
2022/01/29 07:36:51;;;;;;;8.20;4.70;;;;;;;6.01;47.00;100349.66;5054434;28;20480;-51
2022/01/29 07:39:16;;;;;;;9.10;4.80;;;;;;;5.82;47.37;100348.88;5054171;28;20124;-50
2022/01/29 07:41:41;;;;;;;9.60;4.82;;;;;;;5.61;47.67;100351.06;5054544;28;20025;-50
2022/01/29 07:44:07;;;;;;;8.43;4.68;;;;;;;5.73;47.77;100356.91;5054491;28;20033;-49
2022/01/29 07:46:34;;;;;;;7.82;4.47;;;;;;;5.99;46.98;100356.91;5054601;28;20107;-49
2022/01/29 07:49:01;;;;;;;8.23;4.72;;;;;;;6.07;46.73;100360.44;5036570;28;20464;-50
2022/01/29 07:51:27;;;;;;;7.22;4.50;;;;;;;5.98;47.04;100361.38;5036242;28;20514;-49
2022/01/29 07:53:52;;;;;;;6.90;4.70;;;;;;;6.42;46.11;100350.63;5054253;28;20111;-50
2022/01/29 07:56:20;;;;;;;8.45;4.65;;;;;;;6.24;46.33;100356.03;5054013;28;20434;-48
2022/01/29 07:58:46;;;;;;;7.68;4.57;;;;;;;6.13;46.59;100356.31;5054333;28;20043;-51
2022/01/29 08:01:12;;;;;;;8.70;4.65;;;;;;;5.93;46.47;100299.41;5054380;28;20035;-50
2022/01/29 08:03:38;;;;;;;7.15;4.90;;;;;;;5.89;47.67;100359.63;5054061;28;20378;-52
2022/01/29 08:06:03;;;;;;;6.50;4.40;;;;;;;6.17;47.57;100359.44;5053751;28;20083;-50
2022/01/29 08:08:29;;;;;;;8.48;4.80;;;;;;;6.02;47.36;100354.78;5053511;28;20447;-49
2022/01/29 08:10:54;;;;;;;8.65;4.95;;;;;;;6.13;46.95;100356.31;5053764;28;20136;-39
2022/01/29 08:13:19;;;;;;;10.18;5.00;;;;;;;6.44;47.07;100366.31;5053957;28;20033;-39
2022/01/29 08:15:45;;;;;;;8.45;4.75;;;;;;;6.44;46.92;100361.03;5053524;28;20013;-39
2022/01/29 08:18:10;;;;;;;7.95;4.95;;;;;;;6.68;46.58;100367.34;5053911;28;20024;-39
2022/01/29 08:20:36;;;;;;;7.90;4.57;;;;;;;6.60;47.02;100373.47;5053394;28;20025;-37
2022/01/29 08:23:08;;;;;;;9.43;5.47;;;;;;;7.05;45.71;100373.00;5052770;28;20432;-37
2022/01/29 08:25:34;;;;;;;10.90;5.50;;;;;;;7.26;45.92;100379.63;5051109;28;20435;-38
2022/01/29 08:27:59;;;;;;;9.48;5.30;;;;;;;7.31;45.09;100374.69;5052593;28;20431;-37
2022/01/29 08:30:25;;;;;;;11.27;5.18;;;;;;;7.35;45.05;100383.09;5053093;28;20032;-37
2022/01/29 08:32:50;;;;;;;11.35;5.35;;;;;;;7.57;44.66;100385.06;5053204;28;20477;-38
2022/01/29 08:35:16;;;;;;;7.47;4.70;;;;;;;7.37;44.18;100381.13;5052781;28;20044;-38
2022/01/29 08:37:41;;;;;;;9.20;4.85;;;;;;;7.42;45.04;100384.94;5052111;28;20021;-37
2022/01/29 08:40:08;;;;;;;9.32;4.75;;;;;;;7.52;44.36;100399.78;5052798;28;20090;-37
2022/01/29 08:42:33;;;;;;;6.80;4.75;;;;;;;7.40;44.81;100399.31;5052602;28;20023;-37
2022/01/29 08:45:00;;;;;;;12.13;5.00;;;;;;;7.29;44.88;100389.91;5052144;28;20099;-37
2022/01/29 08:47:25;;;;;;;9.48;5.03;;;;;;;7.63;44.71;100404.75;5051285;28;20111;-38
2022/01/29 08:49:51;;;;;;;8.18;4.80;;;;;;;8.12;43.66;100401.16;5052241;28;20075;-37
2022/01/29 08:52:16;;;;;;;8.35;5.00;;;;;;;8.07;43.58;100403.47;5051773;28;20449;-37
2022/01/29 08:54:42;;;;;;;9.50;4.90;;;;;;;7.60;44.42;100397.16;5051428;28;20033;-37
2022/01/29 08:57:07;;;;;;;10.48;5.07;;;;;;;7.41;44.75;100399.16;5052055;28;20135;-39
2022/01/29 08:59:32;;;;;;;7.68;4.93;;;;;;;7.53;44.54;100406.75;5052106;28;20461;-38
2022/01/29 09:01:58;;;;;;;9.35;5.68;;;;;;;7.56;44.53;100398.50;5052940;28;20037;-37
2022/01/29 09:04:23;;;;;;;11.15;5.53;;;;;;;7.69;44.45;100409.41;5052529;28;20028;-38
2022/01/29 09:06:49;;;;;;;9.48;5.30;;;;;;;7.82;43.82;100401.75;5052605;28;20477;-37
2022/01/29 09:09:20;;;;;;;11.20;5.50;;;;;;;7.22;45.19;100402.16;5052385;28;20110;-37
2022/01/29 09:11:46;;;;;;;11.73;5.65;;;;;;;7.30;44.55;100396.03;5052014;28;20108;-39
2022/01/29 09:14:12;;;;;;;9.18;5.10;;;;;;;7.57;44.36;100393.00;5051867;28;20021;-37
2022/01/29 09:16:37;;;;;;;6.53;4.47;;;;;;;7.87;43.19;100385.34;5052051;28;20021;-38
2022/01/29 09:19:03;;;;;;;6.75;4.32;;;;;;;7.94;43.22;100394.25;5052181;28;20017;-37
2022/01/29 09:21:28;;;;;;;8.73;4.75;;;;;;;8.02;42.74;100386.28;5052116;28;20058;-38
2022/01/29 09:23:56;;;;;;;6.97;4.32;;;;;;;8.31;42.01;100384.00;5052694;28;20411;-37
2022/01/29 09:26:22;;;;;;;7.00;4.47;;;;;;;8.07;42.38;100393.69;5051926;28;20463;-38
2022/01/29 09:28:48;;;;;;;6.45;3.97;;;;;;;8.39;41.85;100381.31;5067165;28;20021;-37
2022/01/29 09:31:13;;;;;;;9.10;5.13;;;;;;;8.64;41.30;100378.56;5059367;28;20069;-38
2022/01/29 09:33:38;;;;;;;9.32;5.15;;;;;;;8.89;41.16;100376.56;5060114;28;20469;-37
2022/01/29 09:36:04;;;;;;;7.18;4.85;;;;;;;8.55;41.55;100352.09;5066082;28;20047;-38
2022/01/29 09:38:29;;;;;;;8.80;5.10;;;;;;;8.10;42.58;100380.13;5071462;28;20032;-38
2022/01/29 09:40:55;;;;;;;9.88;5.10;;;;;;;8.26;42.37;100376.56;5070246;28;20024;-40
2022/01/29 09:43:21;;;;;;;8.40;4.00;;;;;;;8.12;42.63;100385.25;5071069;28;20496;-37
2022/01/29 09:45:51;;;;;;;7.57;4.63;;;;;;;8.20;42.42;100372.78;5054409;28;20040;-37
2022/01/29 09:48:22;;;;;;;7.65;4.80;;;;;;;8.60;41.94;100381.56;5051058;28;20333;-37
2022/01/29 09:50:47;;;;;;;9.35;5.15;;;;;;;8.60;42.42;100372.78;5050789;28;20029;-37
2022/01/29 09:53:13;;;;;;;8.13;4.28;;;;;;;8.19;42.89;100371.13;5051168;28;20029;-37
2022/01/29 09:55:38;;;;;;;12.98;4.70;;;;;;;8.37;43.13;100367.41;5050851;28;20021;-37
2022/01/29 09:58:04;;;;;;;23.85;13.27;;;;;;;8.38;43.01;100369.06;5050089;28;20388;-38
2022/01/29 10:00:29;;;;;;;11.52;5.57;;;;;;;8.80;41.84;100368.66;5051623;28;20075;-38
2022/01/29 10:03:10;;;;;;;6.55;4.15;;;;;;;8.62;42.02;100376.06;5050889;28;20021;-39
2022/01/29 10:05:45;;;;;;;;;;;;;;;8.46;42.48;100373.53;5068006;28;20086;-38
2022/01/29 10:08:11;;;;;;;8.60;4.57;;;;;;;8.67;42.27;100379.03;5050824;28;19978;-38
2022/01/29 10:10:38;;;;;;;6.53;4.55;;;;;;;8.57;42.12;100373.97;5057679;28;20053;-38
2022/01/29 10:13:25;;;;;;;7.43;5.10;;;;;;;8.66;42.75;100371.25;5070721;28;20143;-39
2022/01/29 10:15:52;;;;;;;8.77;5.63;;;;;;;8.73;42.68;100365.06;5054187;28;20501;-36
2022/01/29 10:18:24;;;;;;;9.48;4.95;;;;;;;8.93;41.96;100364.59;5066546;28;20017;-38
2022/01/29 10:20:52;;;;;;;8.25;5.20;;;;;;;9.07;41.56;100370.97;5059243;28;20115;-37
2022/01/29 10:23:18;;;;;;;7.90;5.18;;;;;;;8.83;42.21;100366.66;5052721;28;20028;-38
2022/01/29 10:25:44;;;;;;;9.88;5.95;;;;;;;8.93;41.68;100356.63;5033519;28;20045;-39
2022/01/29 10:28:14;;;;;;;9.90;5.50;;;;;;;9.36;41.11;100364.91;5049076;28;20067;-38
2022/01/29 10:30:49;;;;;;;10.18;5.38;;;;;;;9.16;41.69;100354.78;5050610;28;20163;-38
2022/01/29 10:33:33;;;;;;;8.93;5.78;;;;;;;9.13;41.43;100354.31;5062882;28;20031;-38
2022/01/29 10:36:09;;;;;;;18.70;9.43;;;;;;;9.18;40.93;100354.63;5054190;28;20029;-38
2022/01/29 10:38:41;;;;;;;8.20;5.22;;;;;;;9.34;41.18;100354.44;5065570;28;20082;-45
2022/01/29 10:41:09;;;;;;;7.55;4.47;;;;;;;8.93;40.98;100351.31;5052186;28;20094;-39
2022/01/29 10:43:34;;;;;;;6.78;4.28;;;;;;;8.80;41.04;100357.22;5065324;28;20078;-38
2022/01/29 10:46:00;;;;;;;6.18;4.10;;;;;;;8.94;41.93;100361.75;5052118;28;20032;-38
2022/01/29 10:48:43;;;;;;;6.43;4.15;;;;;;;8.50;42.40;100365.03;5055663;28;20039;-37
2022/01/29 10:51:13;;;;;;;9.25;4.25;;;;;;;8.54;41.89;100355.72;5058810;28;20024;-37
2022/01/29 10:53:38;;;;;;;11.63;7.90;;;;;;;9.04;41.55;100350.88;5065425;28;20016;-38
2022/01/29 10:56:04;;;;;;;15.23;8.23;;;;;;;9.09;41.51;100355.69;5053626;28;20395;-37
2022/01/29 10:58:30;;;;;;;8.75;5.00;;;;;;;9.51;40.63;100359.63;5064030;28;20404;-39
2022/01/29 11:01:15;;;;;;;10.00;4.85;;;;;;;9.89;39.52;100354.22;5058812;28;20493;-38
2022/01/29 11:03:41;;;;;;;9.43;5.40;;;;;;;9.45;40.34;100353.19;5054281;28;20033;-38
2022/01/29 11:06:10;;;;;;;7.72;4.72;;;;;;;8.84;41.21;100358.53;5066738;28;20025;-38
2022/01/29 11:08:37;;;;;;;8.57;4.30;;;;;;;9.02;40.99;100355.56;5057078;28;20044;-38
2022/01/29 11:11:03;;;;;;;6.90;4.70;;;;;;;9.71;39.29;100349.25;5041701;28;20087;-38
2022/01/29 11:13:28;;;;;;;50.67;26.55;;;;;;;9.76;38.67;100334.41;5064207;28;20118;-38
2022/01/29 11:15:54;;;;;;;9.57;5.45;;;;;;;9.42;39.97;100342.09;5035545;28;20021;-39
2022/01/29 11:18:19;;;;;;;10.40;6.07;;;;;;;9.35;40.18;100344.66;5044822;28;20470;-36
2022/01/29 11:20:45;;;;;;;10.55;5.63;;;;;;;9.31;40.15;100340.69;5045121;28;20448;-39
2022/01/29 11:23:10;;;;;;;9.80;5.55;;;;;;;9.20;40.28;100345.44;5037714;28;20079;-38
2022/01/29 11:25:36;;;;;;;7.93;4.75;;;;;;;9.20;40.06;100337.47;5042092;28;20028;-37
2022/01/29 11:28:17;;;;;;;9.70;5.15;;;;;;;9.35;40.26;100342.84;5053849;28;20029;-38
2022/01/29 11:30:44;;;;;;;9.13;5.20;;;;;;;9.49;39.36;100343.84;5062548;28;20033;-37
2022/01/29 11:33:09;;;;;;;10.75;4.90;;;;;;;9.47;39.37;100329.09;5048496;28;20607;-38
2022/01/29 11:35:55;;;;;;;7.70;4.88;;;;;;;9.99;38.75;100330.81;5049914;28;20041;-38
2022/01/29 11:38:28;;;;;;;11.18;5.82;;;;;;;10.54;37.53;100337.44;5049942;28;20113;-38
2022/01/29 11:41:00;;;;;;;7.30;4.55;;;;;;;10.67;37.30;100336.75;5050237;28;20025;-38
2022/01/29 11:43:30;;;;;;;7.53;4.72;;;;;;;10.63;37.55;100330.16;5048548;28;20055;-38